sensor_id;sensor_type;location;lat;lon;timestamp;pressure;altitude;pressure_sealevel;temperature;humidity
19736;BME280;32064;49.310;8.646;2023-05-02T00:00:33;100629.19;;;16.35;71.08
19736;BME280;32064;49.310;8.646;2023-05-02T00:02:59;100629.34;;;16.33;71.90
19736;BME280;32064;49.310;8.646;2023-05-02T00:05:25;100624.97;;;16.32;71.39
19736;BME280;32064;49.310;8.646;2023-05-02T00:07:51;100629.75;;;16.29;72.38
19736;BME280;32064;49.310;8.646;2023-05-02T00:10:16;100632.69;;;16.26;72.35
19736;BME280;32064;49.310;8.646;2023-05-02T00:12:42;100633.22;;;16.20;72.41
19736;BME280;32064;49.310;8.646;2023-05-02T00:15:08;100630.84;;;16.16;72.72
19736;BME280;32064;49.310;8.646;2023-05-02T00:17:33;100627.78;;;16.11;71.60
19736;BME280;32064;49.310;8.646;2023-05-02T00:19:59;100628.88;;;16.09;71.58
19736;BME280;32064;49.310;8.646;2023-05-02T00:22:24;100624.69;;;16.06;72.93
19736;BME280;32064;49.310;8.646;2023-05-02T00:24:52;100627.06;;;16.00;72.64
19736;BME280;32064;49.310;8.646;2023-05-02T00:27:19;100631.22;;;15.92;72.95
19736;BME280;32064;49.310;8.646;2023-05-02T00:29:45;100629.94;;;15.87;73.59
19736;BME280;32064;49.310;8.646;2023-05-02T00:32:12;100623.66;;;15.88;73.56
19736;BME280;32064;49.310;8.646;2023-05-02T00:34:38;100631.78;;;15.86;72.45
19736;BME280;32064;49.310;8.646;2023-05-02T00:37:03;100635.25;;;15.87;73.18
19736;BME280;32064;49.310;8.646;2023-05-02T00:39:28;100636.25;;;15.86;72.56
19736;BME280;32064;49.310;8.646;2023-05-02T00:41:58;100644.16;;;15.76;73.14
19736;BME280;32064;49.310;8.646;2023-05-02T00:44:23;100637.72;;;15.69;73.52
19736;BME280;32064;49.310;8.646;2023-05-02T00:46:49;100637.13;;;15.65;74.00
19736;BME280;32064;49.310;8.646;2023-05-02T00:49:15;100628.75;;;15.60;73.20
19736;BME280;32064;49.310;8.646;2023-05-02T00:51:40;100644.06;;;15.57;74.05
19736;BME280;32064;49.310;8.646;2023-05-02T00:54:06;100644.31;;;15.54;74.25
19736;BME280;32064;49.310;8.646;2023-05-02T00:56:31;100648.94;;;15.52;74.56
19736;BME280;32064;49.310;8.646;2023-05-02T00:58:57;100647.53;;;15.47;74.10
19736;BME280;32064;49.310;8.646;2023-05-02T01:07:01;100647.16;;;15.31;74.81
19736;BME280;32064;49.310;8.646;2023-05-02T01:10:01;100648.53;;;15.25;74.33
19736;BME280;32064;49.310;8.646;2023-05-02T01:12:41;100647.94;;;15.22;74.69
19736;BME280;32064;49.310;8.646;2023-05-02T01:15:11;100649.31;;;15.16;74.32
19736;BME280;32064;49.310;8.646;2023-05-02T01:17:40;100652.38;;;15.12;74.08
19736;BME280;32064;49.310;8.646;2023-05-02T01:20:19;100647.56;;;15.05;74.57
19736;BME280;32064;49.310;8.646;2023-05-02T01:22:46;100652.31;;;15.02;74.61
19736;BME280;32064;49.310;8.646;2023-05-02T01:25:25;100649.47;;;14.94;74.43
19736;BME280;32064;49.310;8.646;2023-05-02T01:28:20;100643.97;;;14.86;74.99
19736;BME280;32064;49.310;8.646;2023-05-02T01:30:54;100649.41;;;14.84;74.58
19736;BME280;32064;49.310;8.646;2023-05-02T01:33:21;100655.09;;;14.79;74.65
19736;BME280;32064;49.310;8.646;2023-05-02T01:35:50;100655.59;;;14.73;74.28
19736;BME280;32064;49.310;8.646;2023-05-02T01:38:17;100659.59;;;14.68;75.03
19736;BME280;32064;49.310;8.646;2023-05-02T01:40:44;100662.50;;;14.65;74.72
19736;BME280;32064;49.310;8.646;2023-05-02T01:43:12;100666.34;;;14.60;75.11
19736;BME280;32064;49.310;8.646;2023-05-02T01:45:40;100662.28;;;14.56;74.76
19736;BME280;32064;49.310;8.646;2023-05-02T01:48:08;100670.59;;;14.52;74.70
19736;BME280;32064;49.310;8.646;2023-05-02T01:50:35;100676.38;;;14.46;73.55
19736;BME280;32064;49.310;8.646;2023-05-02T01:53:02;100677.47;;;14.43;74.35
19736;BME280;32064;49.310;8.646;2023-05-02T01:55:28;100685.66;;;14.40;74.62
19736;BME280;32064;49.310;8.646;2023-05-02T01:57:55;100686.75;;;14.37;73.88
19736;BME280;32064;49.310;8.646;2023-05-02T02:00:21;100689.91;;;14.31;75.15
19736;BME280;32064;49.310;8.646;2023-05-02T02:02:50;100697.38;;;14.26;74.35
19736;BME280;32064;49.310;8.646;2023-05-02T02:05:17;100693.41;;;14.21;73.96
19736;BME280;32064;49.310;8.646;2023-05-02T02:07:43;100696.31;;;14.18;74.46
19736;BME280;32064;49.310;8.646;2023-05-02T02:10:10;100697.38;;;14.15;74.10
19736;BME280;32064;49.310;8.646;2023-05-02T02:12:46;100706.78;;;14.08;74.02
19736;BME280;32064;49.310;8.646;2023-05-02T02:18:00;100704.75;;;14.00;74.91
19736;BME280;32064;49.310;8.646;2023-05-02T02:20:28;100707.66;;;13.97;74.04
19736;BME280;32064;49.310;8.646;2023-05-02T02:22:55;100708.97;;;13.91;74.75
19736;BME280;32064;49.310;8.646;2023-05-02T02:25:21;100720.78;;;13.87;74.57
19736;BME280;32064;49.310;8.646;2023-05-02T02:27:49;100719.44;;;13.82;74.19
19736;BME280;32064;49.310;8.646;2023-05-02T02:30:15;100725.69;;;13.81;74.24
19736;BME280;32064;49.310;8.646;2023-05-02T02:32:41;100733.84;;;13.78;74.06
19736;BME280;32064;49.310;8.646;2023-05-02T02:35:07;100737.72;;;13.74;74.45
19736;BME280;32064;49.310;8.646;2023-05-02T02:40:30;100733.50;;;13.71;73.35
19736;BME280;32064;49.310;8.646;2023-05-02T02:43:26;100743.72;;;13.64;73.71
19736;BME280;32064;49.310;8.646;2023-05-02T02:51:28;100747.06;;;13.55;74.23
19736;BME280;32064;49.310;8.646;2023-05-02T02:56:41;100754.75;;;13.58;73.93
19736;BME280;32064;49.310;8.646;2023-05-02T02:59:26;100764.63;;;13.56;73.49
19736;BME280;32064;49.310;8.646;2023-05-02T03:02:03;100761.97;;;13.56;74.16
19736;BME280;32064;49.310;8.646;2023-05-02T03:04:40;100763.66;;;13.57;73.72
19736;BME280;32064;49.310;8.646;2023-05-02T03:07:07;100770.38;;;13.61;73.43
19736;BME280;32064;49.310;8.646;2023-05-02T03:09:43;100777.38;;;13.62;74.07
19736;BME280;32064;49.310;8.646;2023-05-02T03:12:10;100779.41;;;13.70;73.57
19736;BME280;32064;49.310;8.646;2023-05-02T03:14:35;100769.94;;;13.67;73.49
19736;BME280;32064;49.310;8.646;2023-05-02T03:17:01;100776.16;;;13.66;74.24
19736;BME280;32064;49.310;8.646;2023-05-02T03:19:27;100773.50;;;13.66;73.52
19736;BME280;32064;49.310;8.646;2023-05-02T03:21:53;100774.84;;;13.72;74.16
19736;BME280;32064;49.310;8.646;2023-05-02T03:24:18;100780.13;;;13.72;74.31
19736;BME280;32064;49.310;8.646;2023-05-02T03:26:43;100779.41;;;13.70;74.68
19736;BME280;32064;49.310;8.646;2023-05-02T03:29:09;100778.47;;;13.71;73.97
19736;BME280;32064;49.310;8.646;2023-05-02T03:31:35;100779.78;;;13.77;74.27
19736;BME280;32064;49.310;8.646;2023-05-02T03:34:00;100776.66;;;13.72;74.23
19736;BME280;32064;49.310;8.646;2023-05-02T03:36:25;100785.06;;;13.65;73.93
19736;BME280;32064;49.310;8.646;2023-05-02T03:38:51;100781.09;;;13.60;74.34
19736;BME280;32064;49.310;8.646;2023-05-02T03:41:16;100785.13;;;13.53;74.57
19736;BME280;32064;49.310;8.646;2023-05-02T03:43:42;100792.59;;;13.47;73.76
19736;BME280;32064;49.310;8.646;2023-05-02T03:46:08;100792.94;;;13.43;74.50
19736;BME280;32064;49.310;8.646;2023-05-02T03:48:34;100801.22;;;13.38;75.06
19736;BME280;32064;49.310;8.646;2023-05-02T03:51:01;100792.56;;;13.36;74.15
19736;BME280;32064;49.310;8.646;2023-05-02T03:53:26;100794.34;;;13.36;73.90
19736;BME280;32064;49.310;8.646;2023-05-02T03:55:52;100796.53;;;13.31;74.54
19736;BME280;32064;49.310;8.646;2023-05-02T03:58:17;100807.31;;;13.28;74.72
19736;BME280;32064;49.310;8.646;2023-05-02T04:00:43;100812.72;;;13.26;75.03
19736;BME280;32064;49.310;8.646;2023-05-02T04:03:08;100820.09;;;13.21;74.26
19736;BME280;32064;49.310;8.646;2023-05-02T04:05:34;100817.81;;;13.16;74.88
19736;BME280;32064;49.310;8.646;2023-05-02T04:08:00;100811.66;;;13.16;74.05
19736;BME280;32064;49.310;8.646;2023-05-02T04:10:26;100817.81;;;13.16;74.96
19736;BME280;32064;49.310;8.646;2023-05-02T04:12:52;100820.66;;;13.13;74.25
19736;BME280;32064;49.310;8.646;2023-05-02T04:15:17;100822.69;;;13.10;75.20
19736;BME280;32064;49.310;8.646;2023-05-02T04:17:42;100836.72;;;13.10;74.81
19736;BME280;32064;49.310;8.646;2023-05-02T04:20:08;100832.50;;;13.08;74.69
19736;BME280;32064;49.310;8.646;2023-05-02T04:22:34;100837.09;;;13.06;74.92
19736;BME280;32064;49.310;8.646;2023-05-02T04:24:59;100845.03;;;13.06;73.77
19736;BME280;32064;49.310;8.646;2023-05-02T04:27:25;100847.75;;;13.04;74.26
19736;BME280;32064;49.310;8.646;2023-05-02T04:29:51;100850.53;;;13.02;75.08
19736;BME280;32064;49.310;8.646;2023-05-02T04:32:17;100846.69;;;13.07;75.52
19736;BME280;32064;49.310;8.646;2023-05-02T04:34:43;100853.31;;;13.12;73.69
19736;BME280;32064;49.310;8.646;2023-05-02T04:37:08;100861.16;;;13.14;75.29
19736;BME280;32064;49.310;8.646;2023-05-02T04:39:34;100865.47;;;13.15;74.40
19736;BME280;32064;49.310;8.646;2023-05-02T04:41:59;100872.31;;;13.17;74.66
19736;BME280;32064;49.310;8.646;2023-05-02T04:44:26;100866.22;;;13.17;74.77
19736;BME280;32064;49.310;8.646;2023-05-02T04:46:51;100877.72;;;13.16;74.30
19736;BME280;32064;49.310;8.646;2023-05-02T04:49:17;100883.13;;;13.14;73.76
19736;BME280;32064;49.310;8.646;2023-05-02T04:51:43;100887.78;;;13.11;73.98
19736;BME280;32064;49.310;8.646;2023-05-02T04:54:09;100888.84;;;13.08;75.15
19736;BME280;32064;49.310;8.646;2023-05-02T04:56:34;100892.34;;;13.09;75.12
19736;BME280;32064;49.310;8.646;2023-05-02T04:59:00;100894.47;;;13.03;74.11
19736;BME280;32064;49.310;8.646;2023-05-02T05:01:25;100896.38;;;13.01;74.63
19736;BME280;32064;49.310;8.646;2023-05-02T05:03:54;100902.72;;;12.99;74.98
19736;BME280;32064;49.310;8.646;2023-05-02T05:06:20;100903.44;;;13.01;75.30
19736;BME280;32064;49.310;8.646;2023-05-02T05:08:45;100898.69;;;13.06;76.01
19736;BME280;32064;49.310;8.646;2023-05-02T05:11:11;100905.41;;;13.10;76.32
19736;BME280;32064;49.310;8.646;2023-05-02T05:13:37;100905.63;;;13.20;75.97
19736;BME280;32064;49.310;8.646;2023-05-02T05:16:02;100909.19;;;13.19;76.21
19736;BME280;32064;49.310;8.646;2023-05-02T05:18:29;100917.56;;;13.25;76.37
19736;BME280;32064;49.310;8.646;2023-05-02T05:20:55;100926.00;;;13.31;75.12
19736;BME280;32064;49.310;8.646;2023-05-02T05:23:20;100920.03;;;13.40;74.87
19736;BME280;32064;49.310;8.646;2023-05-02T05:25:46;100928.94;;;13.50;75.31
19736;BME280;32064;49.310;8.646;2023-05-02T05:28:11;100936.78;;;13.52;75.77
19736;BME280;32064;49.310;8.646;2023-05-02T05:30:37;100931.28;;;13.55;75.58
19736;BME280;32064;49.310;8.646;2023-05-02T05:33:02;100943.94;;;13.62;75.49
19736;BME280;32064;49.310;8.646;2023-05-02T05:35:28;100941.66;;;13.69;75.96
19736;BME280;32064;49.310;8.646;2023-05-02T05:37:53;100950.19;;;13.73;75.55
19736;BME280;32064;49.310;8.646;2023-05-02T05:40:18;100949.03;;;13.77;75.21
19736;BME280;32064;49.310;8.646;2023-05-02T05:42:45;100955.78;;;13.81;75.25
19736;BME280;32064;49.310;8.646;2023-05-02T05:45:10;100961.78;;;13.83;74.88
19736;BME280;32064;49.310;8.646;2023-05-02T05:47:36;100960.81;;;13.84;74.96
19736;BME280;32064;49.310;8.646;2023-05-02T05:50:02;100976.13;;;13.91;75.15
19736;BME280;32064;49.310;8.646;2023-05-02T05:52:27;100972.31;;;13.96;75.26
19736;BME280;32064;49.310;8.646;2023-05-02T05:54:53;100968.38;;;14.01;76.36
19736;BME280;32064;49.310;8.646;2023-05-02T05:57:19;100971.00;;;14.12;75.70
19736;BME280;32064;49.310;8.646;2023-05-02T05:59:45;100971.66;;;14.16;75.15
19736;BME280;32064;49.310;8.646;2023-05-02T06:02:11;100966.47;;;14.26;75.44
19736;BME280;32064;49.310;8.646;2023-05-02T06:04:36;100979.75;;;14.37;75.32
19736;BME280;32064;49.310;8.646;2023-05-02T06:07:02;100980.72;;;14.47;74.85
19736;BME280;32064;49.310;8.646;2023-05-02T06:09:27;100982.94;;;14.53;74.71
19736;BME280;32064;49.310;8.646;2023-05-02T06:11:57;100979.44;;;14.64;74.61
19736;BME280;32064;49.310;8.646;2023-05-02T06:14:22;100986.44;;;14.76;73.93
19736;BME280;32064;49.310;8.646;2023-05-02T06:16:48;100996.28;;;14.97;73.84
19736;BME280;32064;49.310;8.646;2023-05-02T06:19:13;100996.78;;;15.02;73.88
19736;BME280;32064;49.310;8.646;2023-05-02T06:21:39;101004.13;;;14.98;73.38
19736;BME280;32064;49.310;8.646;2023-05-02T06:24:05;101002.69;;;15.05;73.88
19736;BME280;32064;49.310;8.646;2023-05-02T06:26:30;101003.63;;;15.16;73.64
19736;BME280;32064;49.310;8.646;2023-05-02T06:28:56;101010.97;;;15.35;73.41
19736;BME280;32064;49.310;8.646;2023-05-02T06:31:21;101016.84;;;15.49;73.18
19736;BME280;32064;49.310;8.646;2023-05-02T06:33:47;101019.72;;;15.58;72.07
19736;BME280;32064;49.310;8.646;2023-05-02T06:36:12;101034.53;;;15.60;72.50
19736;BME280;32064;49.310;8.646;2023-05-02T06:38:37;101028.34;;;15.82;71.92
19736;BME280;32064;49.310;8.646;2023-05-02T06:41:03;101026.63;;;16.13;72.04
19736;BME280;32064;49.310;8.646;2023-05-02T06:43:28;101026.03;;;16.42;71.82
19736;BME280;32064;49.310;8.646;2023-05-02T06:45:54;101029.59;;;17.44;67.98
19736;BME280;32064;49.310;8.646;2023-05-02T06:48:21;101038.50;;;17.24;67.97
19736;BME280;32064;49.310;8.646;2023-05-02T06:50:47;101034.91;;;18.71;64.87
19736;BME280;32064;49.310;8.646;2023-05-02T06:53:13;101034.06;;;19.90;60.04
19736;BME280;32064;49.310;8.646;2023-05-02T06:55:38;101037.19;;;20.48;58.90
19736;BME280;32064;49.310;8.646;2023-05-02T06:58:03;101036.16;;;21.27;57.61
19736;BME280;32064;49.310;8.646;2023-05-02T07:00:29;101035.50;;;21.84;56.07
19736;BME280;32064;49.310;8.646;2023-05-02T07:02:54;101040.75;;;22.26;55.11
19736;BME280;32064;49.310;8.646;2023-05-02T07:05:20;101044.03;;;22.77;53.69
19736;BME280;32064;49.310;8.646;2023-05-02T07:07:45;101046.84;;;23.00;52.78
19736;BME280;32064;49.310;8.646;2023-05-02T07:10:11;101053.59;;;23.36;51.28
19736;BME280;32064;49.310;8.646;2023-05-02T07:12:37;101047.66;;;23.80;50.70
19736;BME280;32064;49.310;8.646;2023-05-02T07:15:06;101047.25;;;24.29;49.99
19736;BME280;32064;49.310;8.646;2023-05-02T07:17:32;101043.09;;;24.64;49.36
19736;BME280;32064;49.310;8.646;2023-05-02T07:19:57;101041.72;;;24.98;48.77
19736;BME280;32064;49.310;8.646;2023-05-02T07:22:23;101044.44;;;23.84;50.63
19736;BME280;32064;49.310;8.646;2023-05-02T07:24:56;101038.13;;;22.90;51.69
19736;BME280;32064;49.310;8.646;2023-05-02T07:27:21;101046.84;;;21.61;54.79
19736;BME280;32064;49.310;8.646;2023-05-02T07:29:47;101047.53;;;22.86;52.01
19736;BME280;32064;49.310;8.646;2023-05-02T07:32:12;101047.91;;;22.58;51.44
19736;BME280;32064;49.310;8.646;2023-05-02T07:34:37;101044.72;;;22.71;51.00
19736;BME280;32064;49.310;8.646;2023-05-02T07:37:03;101049.38;;;23.41;49.85
19736;BME280;32064;49.310;8.646;2023-05-02T07:39:28;101049.97;;;24.67;47.14
19736;BME280;32064;49.310;8.646;2023-05-02T07:41:54;101049.91;;;24.90;45.81
19736;BME280;32064;49.310;8.646;2023-05-02T07:44:20;101041.94;;;25.26;46.47
19736;BME280;32064;49.310;8.646;2023-05-02T07:46:46;101050.47;;;25.66;45.66
19736;BME280;32064;49.310;8.646;2023-05-02T07:49:12;101047.94;;;23.53;49.72
19736;BME280;32064;49.310;8.646;2023-05-02T07:51:38;101046.44;;;25.10;46.79
19736;BME280;32064;49.310;8.646;2023-05-02T07:54:17;101056.25;;;25.99;44.81
19736;BME280;32064;49.310;8.646;2023-05-02T07:56:43;101053.03;;;24.49;48.27
19736;BME280;32064;49.310;8.646;2023-05-02T07:59:09;101068.56;;;23.30;49.77
19736;BME280;32064;49.310;8.646;2023-05-02T08:01:34;101056.63;;;22.03;51.14
19736;BME280;32064;49.310;8.646;2023-05-02T08:04:00;101061.00;;;21.45;53.06
19736;BME280;32064;49.310;8.646;2023-05-02T08:06:26;101059.81;;;21.05;53.34
19736;BME280;32064;49.310;8.646;2023-05-02T08:08:52;101069.84;;;20.77;54.69
19736;BME280;32064;49.310;8.646;2023-05-02T08:11:18;101072.47;;;20.51;54.73
19736;BME280;32064;49.310;8.646;2023-05-02T08:13:46;101074.25;;;21.13;52.65
19736;BME280;32064;49.310;8.646;2023-05-02T08:16:12;101072.22;;;23.68;48.01
19736;BME280;32064;49.310;8.646;2023-05-02T08:18:37;101075.34;;;25.02;46.40
19736;BME280;32064;49.310;8.646;2023-05-02T08:21:03;101084.91;;;24.29;47.54
19736;BME280;32064;49.310;8.646;2023-05-02T08:23:28;101070.09;;;24.56;47.92
19736;BME280;32064;49.310;8.646;2023-05-02T08:25:54;101086.91;;;25.62;44.94
19736;BME280;32064;49.310;8.646;2023-05-02T08:28:19;101076.28;;;26.61;43.51
19736;BME280;32064;49.310;8.646;2023-05-02T08:30:45;101081.34;;;26.99;42.28
19736;BME280;32064;49.310;8.646;2023-05-02T08:33:10;101080.28;;;27.28;41.82
19736;BME280;32064;49.310;8.646;2023-05-02T08:35:36;101073.22;;;27.88;41.03
19736;BME280;32064;49.310;8.646;2023-05-02T08:38:01;101084.66;;;27.84;40.70
19736;BME280;32064;49.310;8.646;2023-05-02T08:40:26;101088.88;;;28.06;40.58
19736;BME280;32064;49.310;8.646;2023-05-02T08:42:53;101090.34;;;28.09;39.68
19736;BME280;32064;49.310;8.646;2023-05-02T08:45:18;101094.09;;;28.28;39.34
19736;BME280;32064;49.310;8.646;2023-05-02T08:47:44;101093.56;;;27.77;41.19
19736;BME280;32064;49.310;8.646;2023-05-02T08:50:11;101090.44;;;26.63;41.72
19736;BME280;32064;49.310;8.646;2023-05-02T08:52:37;101087.44;;;25.72;42.91
19736;BME280;32064;49.310;8.646;2023-05-02T08:55:05;101085.72;;;24.75;44.46
19736;BME280;32064;49.310;8.646;2023-05-02T08:57:31;101097.31;;;24.15;44.53
19736;BME280;32064;49.310;8.646;2023-05-02T08:59:57;101090.34;;;23.74;45.32
19736;BME280;32064;49.310;8.646;2023-05-02T09:05:05;101094.28;;;25.53;42.87
19736;BME280;32064;49.310;8.646;2023-05-02T09:07:43;101091.69;;;25.60;42.94
19736;BME280;32064;49.310;8.646;2023-05-02T09:10:10;101092.78;;;27.01;41.31
19736;BME280;32064;49.310;8.646;2023-05-02T09:12:35;101104.28;;;28.39;39.86
19736;BME280;32064;49.310;8.646;2023-05-02T09:15:12;101095.09;;;27.45;41.14
19736;BME280;32064;49.310;8.646;2023-05-02T09:17:41;101095.66;;;27.27;40.47
19736;BME280;32064;49.310;8.646;2023-05-02T09:20:09;101096.97;;;26.26;42.76
19736;BME280;32064;49.310;8.646;2023-05-02T09:22:36;101098.59;;;25.33;43.70
19736;BME280;32064;49.310;8.646;2023-05-02T09:25:01;101106.66;;;24.50;44.76
19736;BME280;32064;49.310;8.646;2023-05-02T09:27:27;101116.66;;;23.87;46.16
19736;BME280;32064;49.310;8.646;2023-05-02T09:30:21;101113.59;;;23.03;46.58
19736;BME280;32064;49.310;8.646;2023-05-02T09:32:48;101112.28;;;22.17;47.50
19736;BME280;32064;49.310;8.646;2023-05-02T09:35:16;101108.75;;;22.17;48.08
19736;BME280;32064;49.310;8.646;2023-05-02T09:37:50;101105.50;;;23.98;45.43
19736;BME280;32064;49.310;8.646;2023-05-02T09:40:15;101121.53;;;25.43;44.16
19736;BME280;32064;49.310;8.646;2023-05-02T09:42:41;101112.72;;;27.00;41.81
19736;BME280;32064;49.310;8.646;2023-05-02T09:45:06;101119.25;;;28.02;40.05
19736;BME280;32064;49.310;8.646;2023-05-02T09:47:32;101119.69;;;28.98;39.29
19736;BME280;32064;49.310;8.646;2023-05-02T09:49:58;101123.22;;;27.51;40.87
19736;BME280;32064;49.310;8.646;2023-05-02T09:52:23;101125.22;;;26.08;42.17
19736;BME280;32064;49.310;8.646;2023-05-02T09:54:49;101123.00;;;25.46;43.47
19736;BME280;32064;49.310;8.646;2023-05-02T09:57:19;101136.78;;;24.46;43.32
19736;BME280;32064;49.310;8.646;2023-05-02T09:59:55;101136.22;;;23.65;44.19
19736;BME280;32064;49.310;8.646;2023-05-02T10:02:27;101129.09;;;23.41;44.52
19736;BME280;32064;49.310;8.646;2023-05-02T10:04:55;101128.97;;;24.05;44.47
19736;BME280;32064;49.310;8.646;2023-05-02T10:07:22;101126.88;;;26.09;41.79
19736;BME280;32064;49.310;8.646;2023-05-02T10:09:48;101129.56;;;27.30;39.58
19736;BME280;32064;49.310;8.646;2023-05-02T10:12:20;101131.69;;;27.06;39.99
19736;BME280;32064;49.310;8.646;2023-05-02T10:14:55;101139.88;;;27.20;39.38
19736;BME280;32064;49.310;8.646;2023-05-02T10:17:28;101137.13;;;27.89;38.54
19736;BME280;32064;49.310;8.646;2023-05-02T10:20:03;101138.06;;;28.96;37.37
19736;BME280;32064;49.310;8.646;2023-05-02T10:22:29;101144.31;;;29.82;36.37
19736;BME280;32064;49.310;8.646;2023-05-02T10:24:57;101143.00;;;29.39;36.72
19736;BME280;32064;49.310;8.646;2023-05-02T10:27:24;101145.31;;;27.68;38.14
19736;BME280;32064;49.310;8.646;2023-05-02T10:29:50;101155.06;;;27.97;37.83
19736;BME280;32064;49.310;8.646;2023-05-02T10:32:17;101143.69;;;29.15;36.23
19736;BME280;32064;49.310;8.646;2023-05-02T10:34:43;101147.22;;;29.22;36.10
19736;BME280;32064;49.310;8.646;2023-05-02T10:37:08;101145.25;;;29.49;37.03
19736;BME280;32064;49.310;8.646;2023-05-02T10:39:34;101147.41;;;29.85;35.74
19736;BME280;32064;49.310;8.646;2023-05-02T10:42:00;101137.75;;;29.96;34.96
19736;BME280;32064;49.310;8.646;2023-05-02T10:44:34;101150.53;;;28.17;37.16
19736;BME280;32064;49.310;8.646;2023-05-02T10:47:00;101162.78;;;26.68;38.28
19736;BME280;32064;49.310;8.646;2023-05-02T10:49:26;101153.38;;;25.84;39.77
19736;BME280;32064;49.310;8.646;2023-05-02T10:51:52;101149.88;;;25.24;39.97
19736;BME280;32064;49.310;8.646;2023-05-02T10:54:23;101149.06;;;24.40;40.40
19736;BME280;32064;49.310;8.646;2023-05-02T10:59:41;101146.28;;;23.23;43.16
19736;BME280;32064;49.310;8.646;2023-05-02T11:05:05;101144.28;;;24.04;42.98
19736;BME280;32064;49.310;8.646;2023-05-02T11:07:32;101140.56;;;23.66;43.22
19736;BME280;32064;49.310;8.646;2023-05-02T11:12:50;101147.31;;;24.55;42.59
19736;BME280;32064;49.310;8.646;2023-05-02T11:20:35;101136.91;;;25.05;41.73
19736;BME280;32064;49.310;8.646;2023-05-02T11:25:50;101133.59;;;25.62;40.59
19736;BME280;32064;49.310;8.646;2023-05-02T11:28:41;101140.34;;;25.73;41.14
19736;BME280;32064;49.310;8.646;2023-05-02T11:36:34;101137.34;;;26.40;39.31
19736;BME280;32064;49.310;8.646;2023-05-02T11:39:03;101125.72;;;26.40;39.85
19736;BME280;32064;49.310;8.646;2023-05-02T11:41:41;101118.41;;;25.91;39.44
19736;BME280;32064;49.310;8.646;2023-05-02T11:44:07;101129.69;;;25.50;40.34
19736;BME280;32064;49.310;8.646;2023-05-02T11:46:36;101128.19;;;25.47;40.63
19736;BME280;32064;49.310;8.646;2023-05-02T11:49:02;101121.31;;;25.45;40.71
19736;BME280;32064;49.310;8.646;2023-05-02T11:51:27;101112.97;;;25.25;40.60
19736;BME280;32064;49.310;8.646;2023-05-02T11:53:53;101114.34;;;25.06;40.95
19736;BME280;32064;49.310;8.646;2023-05-02T11:56:22;101127.91;;;24.98;41.08
19736;BME280;32064;49.310;8.646;2023-05-02T11:58:59;101124.63;;;24.87;40.70
19736;BME280;32064;49.310;8.646;2023-05-02T12:01:25;101114.88;;;24.72;40.62
19736;BME280;32064;49.310;8.646;2023-05-02T12:04:03;101116.09;;;25.14;40.03
19736;BME280;32064;49.310;8.646;2023-05-02T12:06:29;101109.66;;;25.89;39.57
19736;BME280;32064;49.310;8.646;2023-05-02T12:09:08;101113.63;;;25.93;39.91
19736;BME280;32064;49.310;8.646;2023-05-02T12:11:34;101115.31;;;25.94;39.40
19736;BME280;32064;49.310;8.646;2023-05-02T12:14:00;101114.84;;;25.75;39.55
19736;BME280;32064;49.310;8.646;2023-05-02T12:16:26;101105.63;;;25.48;39.91
19736;BME280;32064;49.310;8.646;2023-05-02T12:18:52;101109.34;;;25.47;39.92
19736;BME280;32064;49.310;8.646;2023-05-02T12:21:17;101108.22;;;25.57;40.39
19736;BME280;32064;49.310;8.646;2023-05-02T12:23:47;101107.50;;;25.18;40.46
19736;BME280;32064;49.310;8.646;2023-05-02T12:26:19;101123.50;;;25.20;39.99
19736;BME280;32064;49.310;8.646;2023-05-02T12:28:51;101113.53;;;25.05;39.33
19736;BME280;32064;49.310;8.646;2023-05-02T12:31:18;101124.69;;;25.17;39.92
19736;BME280;32064;49.310;8.646;2023-05-02T12:33:45;101122.38;;;25.29;39.84
19736;BME280;32064;49.310;8.646;2023-05-02T12:36:12;101119.38;;;25.39;40.01
19736;BME280;32064;49.310;8.646;2023-05-02T12:38:38;101125.00;;;24.99;39.42
19736;BME280;32064;49.310;8.646;2023-05-02T12:41:04;101127.34;;;25.02;40.10
19736;BME280;32064;49.310;8.646;2023-05-02T12:43:44;101126.78;;;25.07;39.71
19736;BME280;32064;49.310;8.646;2023-05-02T12:46:10;101118.47;;;25.17;39.61
19736;BME280;32064;49.310;8.646;2023-05-02T12:48:35;101124.50;;;25.19;40.34
19736;BME280;32064;49.310;8.646;2023-05-02T12:51:01;101130.09;;;25.32;39.52
19736;BME280;32064;49.310;8.646;2023-05-02T12:53:43;101127.84;;;25.36;38.87
19736;BME280;32064;49.310;8.646;2023-05-02T12:56:10;101118.09;;;25.35;38.62
19736;BME280;32064;49.310;8.646;2023-05-02T12:58:41;101114.81;;;25.39;38.49
19736;BME280;32064;49.310;8.646;2023-05-02T13:01:07;101113.38;;;25.37;38.99
19736;BME280;32064;49.310;8.646;2023-05-02T13:03:33;101122.53;;;24.98;39.70
19736;BME280;32064;49.310;8.646;2023-05-02T13:05:59;101120.19;;;24.34;40.34
19736;BME280;32064;49.310;8.646;2023-05-02T13:08:24;101126.53;;;24.41;39.87
19736;BME280;32064;49.310;8.646;2023-05-02T13:10:50;101131.94;;;24.18;40.42
19736;BME280;32064;49.310;8.646;2023-05-02T13:13:15;101120.47;;;24.47;39.67
19736;BME280;32064;49.310;8.646;2023-05-02T13:15:41;101123.75;;;24.03;39.01
19736;BME280;32064;49.310;8.646;2023-05-02T13:18:07;101124.06;;;24.08;39.35
19736;BME280;32064;49.310;8.646;2023-05-02T13:20:32;101131.09;;;24.40;40.04
19736;BME280;32064;49.310;8.646;2023-05-02T13:22:57;101123.84;;;24.41;39.22
19736;BME280;32064;49.310;8.646;2023-05-02T13:25:23;101125.78;;;24.32;39.33
19736;BME280;32064;49.310;8.646;2023-05-02T13:27:48;101118.25;;;24.51;39.18
19736;BME280;32064;49.310;8.646;2023-05-02T13:30:14;101120.00;;;24.44;39.57
19736;BME280;32064;49.310;8.646;2023-05-02T13:32:39;101116.06;;;24.69;39.62
19736;BME280;32064;49.310;8.646;2023-05-02T13:35:05;101119.25;;;24.87;39.14